Time;durP1;ratioP1;P1;durP2;ratioP2;P2;SDS_P1;SDS_P2;PMS_P1;PMS_P2;Temp;Humidity;BMP_temperature;BMP_pressure;BME280_temperature;BME280_humidity;BME280_pressure;Samples;Min_cycle;Max_cycle;Signal;HPM_P1;HPM_P2
2022/03/21 00:01:28;;;;;;;0.20;0.20;;;;;;;6.26;43.99;101832.63;5092087;28;20039;-72
2022/03/21 00:03:59;;;;;;;0.20;0.20;;;;;;;6.29;44.26;101834.81;5092284;28;20031;-72
2022/03/21 00:06:28;;;;;;;0.30;0.30;;;;;;;6.26;44.47;101831.78;5091980;28;20485;-72
2022/03/21 00:08:53;;;;;;;0.25;0.25;;;;;;;6.26;43.91;101843.66;5092934;28;20040;-72
2022/03/21 00:11:25;;;;;;;0.20;0.20;;;;;;;6.26;44.23;101838.16;5093160;28;20340;-72
2022/03/21 00:13:53;;;;;;;0.20;0.20;;;;;;;6.22;44.02;101841.78;5093624;28;20059;-72
2022/03/21 00:16:27;;;;;;;0.20;0.20;;;;;;;6.24;43.36;101845.91;5092383;28;20107;-72
2022/03/21 00:18:53;;;;;;;0.20;0.20;;;;;;;6.12;43.74;101856.53;5095009;28;20134;-73
2022/03/21 00:21:22;;;;;;;0.20;0.20;;;;;;;6.23;43.26;101841.50;5096189;28;20071;-72
2022/03/21 00:23:51;;;;;;;0.20;0.20;;;;;;;6.15;43.48;101841.31;5096511;28;20073;-72
2022/03/21 00:26:16;;;;;;;0.30;0.30;;;;;;;6.11;43.64;101841.06;5099450;28;20027;-72
2022/03/21 00:28:47;;;;;;;0.20;0.20;;;;;;;6.22;43.48;101844.53;5099329;28;20031;-73
2022/03/21 00:31:16;;;;;;;0.20;0.20;;;;;;;6.18;43.59;101844.34;5099922;28;20118;-72
2022/03/21 00:33:41;;;;;;;0.20;0.20;;;;;;;6.24;42.97;101839.56;5099455;28;20027;-72
2022/03/21 00:36:08;;;;;;;0.20;0.20;;;;;;;6.14;43.75;101834.16;5099365;28;20033;-73
2022/03/21 00:38:37;;;;;;;0.20;0.20;;;;;;;6.12;43.44;101831.66;5099363;28;20034;-72
2022/03/21 00:41:04;;;;;;;0.25;0.25;;;;;;;6.16;43.91;101838.25;5099803;28;20032;-72
2022/03/21 00:43:30;;;;;;;0.20;0.20;;;;;;;6.12;43.46;101834.41;5099217;28;20085;-72
2022/03/21 00:45:57;;;;;;;0.25;0.25;;;;;;;6.14;43.66;101834.97;5098924;28;20024;-73
2022/03/21 00:48:25;;;;;;;0.30;0.30;;;;;;;6.16;43.32;101832.72;5117145;28;20027;-72
2022/03/21 00:50:55;;;;;;;0.30;0.30;;;;;;;6.16;44.04;101834.66;5099728;28;20542;-72
2022/03/21 00:53:21;;;;;;;0.20;0.20;;;;;;;6.08;43.97;101827.84;5099096;28;20038;-72
2022/03/21 00:55:48;;;;;;;0.20;0.20;;;;;;;6.10;44.38;101833.91;5098987;28;20032;-72
2022/03/21 00:58:20;;;;;;;0.20;0.20;;;;;;;6.08;44.84;101824.28;5117438;28;20031;-72
2022/03/21 01:00:46;;;;;;;0.20;0.20;;;;;;;6.08;45.33;101830.63;5098920;28;20031;-73
2022/03/21 01:03:12;;;;;;;0.22;0.22;;;;;;;6.15;44.40;101825.56;5098682;28;20115;-72
2022/03/21 01:05:38;;;;;;;0.20;0.20;;;;;;;6.11;45.69;101830.00;5098783;28;20126;-72
2022/03/21 01:08:04;;;;;;;0.20;0.20;;;;;;;6.08;45.65;101829.81;5099473;28;20027;-73
2022/03/21 01:10:34;;;;;;;0.30;0.30;;;;;;;6.01;46.05;101814.38;5099338;28;20119;-74
2022/03/21 01:13:07;;;;;;;0.20;0.20;;;;;;;6.05;46.09;101825.66;5099537;28;20028;-72
2022/03/21 01:15:35;;;;;;;0.30;0.30;;;;;;;6.03;46.67;101820.44;5099372;28;20026;-72
2022/03/21 01:18:01;;;;;;;0.28;0.28;;;;;;;5.90;46.14;101807.25;5098675;28;20032;-72
2022/03/21 01:20:27;;;;;;;0.20;0.20;;;;;;;5.97;46.93;101823.56;5094942;28;20071;-72
2022/03/21 01:22:53;;;;;;;0.25;0.25;;;;;;;5.91;46.80;101814.50;5095378;28;20398;-72
2022/03/21 01:25:21;;;;;;;0.20;0.20;;;;;;;5.95;47.21;101820.25;5094922;28;20031;-72
2022/03/21 01:27:47;;;;;;;0.20;0.20;;;;;;;5.93;47.57;101819.72;5096488;28;20457;-72
2022/03/21 01:30:15;;;;;;;0.20;0.20;;;;;;;5.88;47.82;101815.03;5094885;28;20039;-72
2022/03/21 01:32:43;;;;;;;0.20;0.20;;;;;;;5.93;47.50;101820.53;5095426;28;20032;-72
2022/03/21 01:35:11;;;;;;;0.20;0.20;;;;;;;5.86;47.45;101816.41;5094730;28;20030;-72
2022/03/21 01:37:36;;;;;;;0.20;0.20;;;;;;;5.88;48.31;101819.75;5094841;28;20056;-72
2022/03/21 01:40:03;;;;;;;0.20;0.20;;;;;;;5.88;48.49;101825.25;5095076;28;20063;-72
2022/03/21 01:42:36;;;;;;;0.30;0.30;;;;;;;5.85;48.73;101825.84;5094768;28;20497;-72
2022/03/21 01:45:06;;;;;;;0.20;0.20;;;;;;;5.85;48.37;101832.19;5094940;28;20106;-73
2022/03/21 01:47:35;;;;;;;0.20;0.20;;;;;;;5.85;49.05;101823.06;5095792;28;20028;-73
2022/03/21 01:50:03;;;;;;;0.20;0.20;;;;;;;5.78;49.31;101826.19;5095190;28;20474;-72
2022/03/21 01:52:29;;;;;;;0.20;0.20;;;;;;;5.78;48.30;101818.72;5094693;28;20482;-72
2022/03/21 01:57:39;;;;;;;0.30;0.30;;;;;;;5.75;48.93;101813.78;5095572;28;20505;-72
2022/03/21 02:00:06;;;;;;;0.20;0.20;;;;;;;5.75;48.54;101811.03;5094614;28;20028;-72
2022/03/21 02:02:33;;;;;;;0.30;0.30;;;;;;;5.74;48.12;101812.13;5094448;28;20039;-72
2022/03/21 02:04:58;;;;;;;0.25;0.25;;;;;;;5.75;47.98;101811.03;5093825;28;20028;-72
2022/03/21 02:07:26;;;;;;;0.20;0.20;;;;;;;5.79;48.11;101820.34;5094034;28;20028;-72
2022/03/21 02:09:57;;;;;;;0.20;0.20;;;;;;;5.77;48.18;101817.06;5094377;28;20111;-73
2022/03/21 02:12:25;;;;;;;0.20;0.20;;;;;;;5.73;48.25;101818.75;5094035;28;20020;-72
2022/03/21 02:14:51;;;;;;;0.20;0.20;;;;;;;5.61;48.39;101801.75;5094020;28;20478;-72
2022/03/21 02:17:24;;;;;;;0.20;0.20;;;;;;;5.76;48.18;101812.66;5094856;28;20038;-72
2022/03/21 02:19:51;;;;;;;0.20;0.20;;;;;;;5.71;48.28;101803.59;5093639;28;20047;-72
2022/03/21 02:22:30;;;;;;;0.20;0.20;;;;;;;5.75;48.23;101816.56;5094408;28;20459;-72
2022/03/21 02:25:30;;;;;;;0.25;0.25;;;;;;;5.71;48.21;101801.66;5093723;28;20024;-72
2022/03/21 02:28:05;;;;;;;0.20;0.20;;;;;;;5.73;48.19;101801.38;5094569;28;20123;-72
2022/03/21 02:30:33;;;;;;;0.20;0.20;;;;;;;5.71;48.17;101809.13;5093776;28;20032;-72
2022/03/21 02:33:06;;;;;;;0.20;0.20;;;;;;;5.72;48.20;101819.06;5093759;28;20028;-72
2022/03/21 02:35:33;;;;;;;0.20;0.20;;;;;;;5.75;47.94;101808.25;5094426;28;20466;-72
2022/03/21 02:38:01;;;;;;;0.30;0.30;;;;;;;5.72;48.03;101817.13;5094195;28;20067;-73
2022/03/21 02:40:30;;;;;;;0.30;0.30;;;;;;;5.72;47.90;101821.81;5094064;28;20097;-72
2022/03/21 02:42:56;;;;;;;0.20;0.20;;;;;;;5.74;47.64;101825.94;5093595;28;20034;-72
2022/03/21 02:45:24;;;;;;;0.20;0.20;;;;;;;5.73;48.11;101816.00;5093435;28;20024;-72
2022/03/21 02:47:53;;;;;;;0.20;0.20;;;;;;;5.73;48.11;101812.41;5093829;28;20028;-72
2022/03/21 02:50:34;;;;;;;0.20;0.20;;;;;;;5.76;48.14;101807.16;5093393;28;20039;-72
2022/03/21 02:53:01;;;;;;;0.20;0.20;;;;;;;5.75;48.10;101823.97;5093454;28;20028;-72
2022/03/21 02:55:29;;;;;;;0.20;0.20;;;;;;;5.65;48.69;101810.31;5093374;28;20024;-72
2022/03/21 02:57:55;;;;;;;0.20;0.20;;;;;;;5.58;49.44;101809.78;5093694;28;20466;-72
2022/03/21 03:00:23;;;;;;;0.20;0.20;;;;;;;5.55;49.12;101794.63;5093412;28;20051;-72
2022/03/21 03:02:52;;;;;;;0.20;0.20;;;;;;;5.69;48.27;101812.16;5093566;28;20016;-72
2022/03/21 03:05:17;;;;;;;0.20;0.20;;;;;;;5.73;47.87;101813.25;5093120;28;20024;-72
2022/03/21 03:07:46;;;;;;;0.20;0.20;;;;;;;5.74;47.85;101814.88;5093525;28;20032;-72
2022/03/21 03:10:14;;;;;;;0.28;0.28;;;;;;;5.66;48.67;101806.41;5093415;28;20039;-73
2022/03/21 03:12:41;;;;;;;0.20;0.20;;;;;;;5.43;47.83;101775.69;5093263;28;20023;-72
2022/03/21 03:15:07;;;;;;;0.20;0.20;;;;;;;5.69;48.31;101817.69;5093049;28;20489;-73
2022/03/21 03:17:33;;;;;;;0.30;0.30;;;;;;;5.75;47.75;101811.03;5093167;28;20485;-72
2022/03/21 03:20:01;;;;;;;0.30;0.30;;;;;;;5.71;48.71;101804.44;5092619;28;20055;-72
2022/03/21 03:22:27;;;;;;;0.20;0.20;;;;;;;5.73;48.52;101818.75;5093383;28;20028;-72
2022/03/21 03:24:56;;;;;;;0.30;0.30;;;;;;;5.66;48.73;101812.75;5092890;28;20028;-72
2022/03/21 03:27:22;;;;;;;0.20;0.20;;;;;;;5.67;48.30;101808.88;5093379;28;20034;-72
2022/03/21 03:29:50;;;;;;;0.20;0.20;;;;;;;5.61;48.88;101810.03;5092784;28;20028;-72
2022/03/21 03:32:19;;;;;;;0.20;0.20;;;;;;;5.76;48.28;101823.72;5093145;28;20024;-72
2022/03/21 03:34:45;;;;;;;0.20;0.20;;;;;;;5.75;48.80;101822.06;5093532;28;20086;-73
2022/03/21 03:37:11;;;;;;;0.20;0.20;;;;;;;5.73;48.67;101821.53;5093342;28;20042;-72
2022/03/21 03:39:39;;;;;;;0.20;0.20;;;;;;;5.64;49.07;101812.22;5092844;28;20028;-73
2022/03/21 03:42:06;;;;;;;0.20;0.20;;;;;;;5.71;48.56;101807.19;5093509;28;20487;-72
2022/03/21 03:44:32;;;;;;;0.20;0.20;;;;;;;5.81;48.57;101819.25;5092545;28;20042;-72
2022/03/21 03:46:57;;;;;;;0.20;0.20;;;;;;;5.77;49.30;101822.59;5093300;28;20126;-73
2022/03/21 03:49:32;;;;;;;0.20;0.20;;;;;;;5.66;48.93;101815.53;5093234;28;20092;-72
2022/03/21 03:52:01;;;;;;;0.20;0.20;;;;;;;5.75;48.08;101826.75;5093176;28;20085;-72
2022/03/21 03:54:26;;;;;;;0.20;0.20;;;;;;;5.80;47.47;101818.41;5093110;28;20364;-73
2022/03/21 03:56:58;;;;;;;0.20;0.20;;;;;;;6.02;46.64;101826.28;5093040;28;20039;-72
2022/03/21 03:59:23;;;;;;;0.20;0.20;;;;;;;5.95;47.37;101828.53;5094949;28;20039;-72
2022/03/21 04:01:52;;;;;;;0.25;0.25;;;;;;;6.04;46.15;101826.78;5096733;28;20432;-72
2022/03/21 04:04:20;;;;;;;0.30;0.30;;;;;;;6.03;46.19;101834.25;5096553;28;20020;-72
2022/03/21 04:06:51;;;;;;;0.20;0.20;;;;;;;6.06;46.52;101821.78;5096597;28;20035;-72
2022/03/21 04:09:16;;;;;;;0.20;0.20;;;;;;;6.07;46.23;101823.41;5096498;28;20034;-72
2022/03/21 04:11:44;;;;;;;0.20;0.20;;;;;;;6.03;46.48;101814.09;5096499;28;20032;-72
2022/03/21 04:14:13;;;;;;;0.20;0.20;;;;;;;6.05;46.34;101814.63;5096435;28;20024;-72
2022/03/21 04:16:43;;;;;;;0.20;0.20;;;;;;;6.05;45.64;101811.84;5096850;28;20463;-72
2022/03/21 04:19:08;;;;;;;0.20;0.20;;;;;;;6.09;45.47;101804.63;5099498;28;20051;-72
2022/03/21 04:21:34;;;;;;;0.30;0.30;;;;;;;6.13;45.30;101802.09;5099636;28;20371;-72
2022/03/21 04:24:00;;;;;;;0.25;0.25;;;;;;;6.19;44.51;101799.00;5099453;28;20063;-72
2022/03/21 04:26:28;;;;;;;0.20;0.20;;;;;;;6.23;44.20;101797.28;5099517;28;20122;-72
2022/03/21 04:28:55;;;;;;;0.20;0.20;;;;;;;6.32;44.49;101807.69;5099439;28;20067;-73
2022/03/21 04:31:21;;;;;;;0.20;0.20;;;;;;;6.33;44.38;101809.31;5099715;28;20501;-73
2022/03/21 04:33:50;;;;;;;0.30;0.30;;;;;;;6.21;44.50;101806.97;5099998;28;20080;-72
2022/03/21 04:36:16;;;;;;;0.20;0.20;;;;;;;6.27;44.64;101801.09;5100138;28;20058;-73
2022/03/21 04:38:42;;;;;;;0.20;0.20;;;;;;;6.27;44.38;101801.09;5099311;28;20480;-72
2022/03/21 04:41:10;;;;;;;0.22;0.22;;;;;;;6.35;43.77;101802.41;5099525;28;20038;-72
2022/03/21 04:43:36;;;;;;;0.20;0.20;;;;;;;6.57;42.68;101805.44;5099568;28;20100;-72
2022/03/21 04:46:01;;;;;;;0.20;0.20;;;;;;;6.80;42.28;101813.97;5099194;28;20443;-72
2022/03/21 04:48:27;;;;;;;0.28;0.28;;;;;;;6.42;43.58;101813.09;5099184;28;20030;-72
2022/03/21 04:50:53;;;;;;;0.20;0.20;;;;;;;6.12;44.43;101809.56;5099159;28;20031;-72
2022/03/21 04:53:18;;;;;;;0.20;0.20;;;;;;;6.37;43.25;101804.84;5098985;28;20036;-73
2022/03/21 04:55:44;;;;;;;0.20;0.20;;;;;;;6.32;43.31;101807.69;5099302;28;20058;-72
2022/03/21 04:58:13;;;;;;;0.20;0.20;;;;;;;6.49;42.02;101810.78;5099011;28;20031;-71
2022/03/21 05:00:39;;;;;;;0.20;0.20;;;;;;;6.77;40.53;101798.81;5099102;28;20505;-72
2022/03/21 05:03:09;;;;;;;0.20;0.20;;;;;;;6.85;41.18;101815.84;5099227;28;20104;-72
2022/03/21 05:05:35;;;;;;;0.20;0.20;;;;;;;6.81;41.15;101821.97;5099117;28;20085;-73
2022/03/21 05:08:02;;;;;;;0.22;0.22;;;;;;;6.68;42.53;101806.13;5099293;28;20028;-71
2022/03/21 05:10:29;;;;;;;0.20;0.20;;;;;;;6.63;43.01;101814.47;5097587;28;20088;-72
2022/03/21 05:12:54;;;;;;;0.20;0.20;;;;;;;6.68;42.00;101819.94;5098808;28;20040;-73
2022/03/21 05:15:20;;;;;;;0.20;0.20;;;;;;;6.40;43.52;101820.88;5098700;28;20366;-71
2022/03/21 05:17:46;;;;;;;0.20;0.20;;;;;;;6.21;44.52;101835.44;5099090;28;20028;-72
2022/03/21 05:20:17;;;;;;;0.20;0.20;;;;;;;6.21;45.07;101829.91;5095091;28;20120;-73
2022/03/21 05:31:06;;;;;;;0.20;0.20;;;;;;;6.16;45.26;101827.19;5096327;28;20402;-71
2022/03/21 05:36:26;;;;;;;0.20;0.20;;;;;;;6.25;45.54;101830.97;5096479;28;20093;-72
2022/03/21 05:38:52;;;;;;;0.22;0.22;;;;;;;6.29;45.62;101837.56;5094864;28;20028;-71
2022/03/21 05:41:21;;;;;;;0.20;0.20;;;;;;;6.44;45.26;101841.25;5096513;28;20043;-71
2022/03/21 05:43:46;;;;;;;0.20;0.20;;;;;;;6.42;45.02;101836.03;5095853;28;20381;-70
2022/03/21 05:46:13;;;;;;;0.30;0.30;;;;;;;6.42;44.90;101840.75;5094908;28;20114;-71
2022/03/21 05:48:50;;;;;;;0.20;0.20;;;;;;;6.32;45.78;101840.84;5094832;28;20351;-71
2022/03/21 05:51:21;;;;;;;0.20;0.20;;;;;;;6.39;45.34;101841.31;5094816;28;20032;-71
2022/03/21 05:53:46;;;;;;;0.20;0.20;;;;;;;6.54;45.74;101843.91;5095765;28;20375;-71
2022/03/21 05:56:14;;;;;;;0.20;0.20;;;;;;;6.41;46.48;101850.97;5094515;28;20024;-71
2022/03/21 05:58:42;;;;;;;0.20;0.20;;;;;;;6.47;46.24;101854.50;5094727;28;20035;-71
2022/03/21 06:01:11;;;;;;;0.20;0.20;;;;;;;6.45;46.35;101842.94;5095374;28;20035;-73
2022/03/21 06:03:37;;;;;;;0.20;0.20;;;;;;;6.46;46.71;101847.34;5095461;28;20032;-71
2022/03/21 06:06:10;;;;;;;0.20;0.20;;;;;;;6.44;46.83;101860.59;5095900;28;20024;-71
2022/03/21 06:08:36;;;;;;;0.20;0.20;;;;;;;6.51;46.43;101853.63;5094259;28;20066;-71
2022/03/21 06:11:04;;;;;;;0.20;0.20;;;;;;;6.58;46.61;101853.25;5094111;28;20306;-71
2022/03/21 06:13:32;;;;;;;0.20;0.20;;;;;;;6.54;47.10;101858.53;5094099;28;20482;-71
2022/03/21 06:16:06;;;;;;;0.30;0.30;;;;;;;7.16;45.07;101852.22;5095569;28;20021;-71
2022/03/21 06:18:36;;;;;;;0.20;0.20;;;;;;;6.94;45.60;101859.16;5094206;28;20031;-71
2022/03/21 06:21:04;;;;;;;0.20;0.20;;;;;;;6.99;45.35;101867.41;5093698;28;20058;-71
2022/03/21 06:23:32;;;;;;;0.20;0.20;;;;;;;7.14;45.67;101869.13;5093897;28;20020;-71
2022/03/21 06:26:01;;;;;;;0.20;0.20;;;;;;;7.39;45.51;101862.38;5093796;28;20058;-71
2022/03/21 06:28:30;;;;;;;0.20;0.20;;;;;;;7.50;46.13;101871.34;5093774;28;20060;-71
2022/03/21 06:31:00;;;;;;;0.30;0.30;;;;;;;7.35;45.83;101875.19;5094580;28;20094;-71
2022/03/21 06:33:29;;;;;;;0.20;0.20;;;;;;;7.35;45.35;101876.00;5077262;28;20028;-71
2022/03/21 06:36:00;;;;;;;0.20;0.20;;;;;;;7.44;46.03;101872.56;5093983;28;20036;-71
2022/03/21 06:38:25;;;;;;;0.20;0.20;;;;;;;7.30;46.10;101878.84;5094804;28;20019;-71
2022/03/21 06:40:52;;;;;;;0.30;0.30;;;;;;;7.23;45.88;101881.16;5093749;28;20039;-71
2022/03/21 06:43:20;;;;;;;0.30;0.30;;;;;;;7.22;45.62;101882.28;5093694;28;20056;-71
2022/03/21 06:45:52;;;;;;;0.22;0.22;;;;;;;7.11;46.54;101874.44;5093505;28;20478;-71
2022/03/21 06:48:22;;;;;;;0.20;0.20;;;;;;;7.08;47.21;101886.91;5093696;28;20394;-71
2022/03/21 06:50:53;;;;;;;0.20;0.20;;;;;;;7.04;48.05;101885.88;5093408;28;20034;-70
2022/03/21 06:53:19;;;;;;;0.22;0.22;;;;;;;6.89;48.39;101875.00;5094014;28;20476;-71
2022/03/21 06:55:48;;;;;;;0.20;0.20;;;;;;;6.81;49.33;101893.91;5093480;28;20119;-71
2022/03/21 06:58:17;;;;;;;0.20;0.20;;;;;;;6.70;50.66;101895.16;5093881;28;20501;-70
2022/03/21 07:00:45;;;;;;;0.20;0.20;;;;;;;6.69;50.82;101907.34;5093387;28;20039;-71
2022/03/21 07:03:19;;;;;;;0.20;0.20;;;;;;;6.64;51.72;101907.41;5093602;28;20020;-71
2022/03/21 07:05:45;;;;;;;0.20;0.20;;;;;;;6.60;52.41;101898.03;5093694;28;20431;-70
2022/03/21 07:08:11;;;;;;;0.20;0.20;;;;;;;6.56;52.52;101897.81;5093506;28;20363;-71
2022/03/21 07:10:40;;;;;;;0.20;0.20;;;;;;;6.63;52.58;101900.22;5093043;28;20032;-71
2022/03/21 07:13:11;;;;;;;0.20;0.20;;;;;;;6.62;53.11;101890.28;5093125;28;20024;-70
2022/03/21 07:15:40;;;;;;;0.20;0.20;;;;;;;6.55;53.24;101884.25;5093039;28;20031;-71
2022/03/21 07:18:05;;;;;;;0.20;0.20;;;;;;;6.51;54.24;101905.34;5092998;28;20047;-71
2022/03/21 07:20:34;;;;;;;0.20;0.20;;;;;;;6.54;54.64;101897.25;5094632;28;20080;-72
2022/03/21 07:23:09;;;;;;;0.20;0.20;;;;;;;6.56;54.71;101902.53;5094611;28;20074;-72
2022/03/21 07:25:38;;;;;;;0.30;0.30;;;;;;;6.57;54.98;101905.00;5093498;28;20445;-71
2022/03/21 07:28:06;;;;;;;0.30;0.30;;;;;;;6.71;55.07;101905.13;5093526;28;20028;-72
2022/03/21 07:30:32;;;;;;;0.30;0.30;;;;;;;6.66;54.87;101891.34;5092969;28;20036;-72
2022/03/21 07:33:00;;;;;;;0.22;0.22;;;;;;;6.79;54.58;101890.63;5093016;28;20031;-71
2022/03/21 07:35:26;;;;;;;0.20;0.20;;;;;;;6.89;54.98;101889.66;5092697;28;20032;-72
2022/03/21 07:37:57;;;;;;;0.30;0.30;;;;;;;6.96;54.40;101894.84;5092831;28;20030;-72
2022/03/21 07:40:24;;;;;;;0.20;0.20;;;;;;;7.04;53.58;101891.41;5092894;28;20024;-72
2022/03/21 07:42:50;;;;;;;0.20;0.20;;;;;;;7.04;54.32;101889.47;5093958;28;20024;-71
2022/03/21 07:48:16;;;;;;;0.20;0.20;;;;;;;7.83;52.03;101884.13;5060060;28;20028;-71
2022/03/21 07:50:46;;;;;;;0.20;0.20;;;;;;;7.99;50.89;101883.81;5092673;28;20043;-71
2022/03/21 07:53:15;;;;;;;0.25;0.25;;;;;;;7.99;51.38;101883.81;5093213;28;20024;-71
2022/03/21 07:55:46;;;;;;;0.25;0.25;;;;;;;7.81;51.38;101891.88;5093420;28;20035;-71
2022/03/21 07:58:12;;;;;;;0.20;0.20;;;;;;;7.73;52.34;101881.50;5092819;28;20020;-71
2022/03/21 08:00:41;;;;;;;0.20;0.20;;;;;;;7.85;52.48;101884.63;5093511;28;20042;-71
2022/03/21 08:03:14;;;;;;;0.20;0.20;;;;;;;7.71;52.82;101894.81;5092787;28;20028;-72
2022/03/21 08:05:40;;;;;;;0.27;0.27;;;;;;;7.52;53.66;101896.81;5092670;28;20036;-71
2022/03/21 08:08:08;;;;;;;0.20;0.20;;;;;;;7.52;53.92;101902.34;5092657;28;20094;-72
2022/03/21 08:10:34;;;;;;;0.22;0.22;;;;;;;7.16;56.20;101907.56;5092550;28;20055;-71
2022/03/21 08:13:00;;;;;;;0.20;0.20;;;;;;;7.08;56.99;101907.13;5093052;28;20177;-72
2022/03/21 08:15:26;;;;;;;0.20;0.20;;;;;;;6.99;57.62;101921.91;5093115;28;20450;-72
2022/03/21 08:18:00;;;;;;;0.20;0.20;;;;;;;6.94;59.57;101897.09;5093879;28;20036;-72
2022/03/21 08:20:38;;;;;;;0.30;0.30;;;;;;;6.97;59.31;101904.78;5094856;28;20043;-71
2022/03/21 08:23:08;;;;;;;0.20;0.20;;;;;;;7.00;58.64;101893.94;5093113;28;20059;-71
2022/03/21 08:25:48;;;;;;;0.20;0.20;;;;;;;7.87;55.91;101893.44;5093263;28;20028;-72
2022/03/21 08:28:14;;;;;;;0.20;0.20;;;;;;;8.22;53.64;101893.13;5094516;28;20529;-71
2022/03/21 08:30:42;;;;;;;0.20;0.20;;;;;;;8.45;51.13;101886.59;5094538;28;20044;-72
2022/03/21 08:33:12;;;;;;;0.20;0.20;;;;;;;9.25;49.10;101885.19;5097622;28;20032;-73
2022/03/21 08:35:40;;;;;;;0.20;0.20;;;;;;;9.00;48.63;101891.31;5100279;28;20051;-72
2022/03/21 08:38:07;;;;;;;0.20;0.20;;;;;;;8.63;48.61;101893.22;5099285;28;20032;-72
2022/03/21 08:40:36;;;;;;;0.20;0.20;;;;;;;9.13;47.25;101885.75;5099473;28;20484;-73
2022/03/21 08:43:02;;;;;;;0.20;0.20;;;;;;;8.42;49.00;101894.75;5093224;28;20467;-73
2022/03/21 08:45:28;;;;;;;0.30;0.30;;;;;;;8.45;49.42;101853.31;5094453;28;20078;-71
2022/03/21 08:47:54;;;;;;;0.20;0.20;;;;;;;9.22;47.90;101888.63;5095957;28;20402;-71
2022/03/21 08:50:29;;;;;;;0.20;0.20;;;;;;;9.30;47.13;101876.75;5095894;28;20115;-72
2022/03/21 08:52:58;;;;;;;0.20;0.20;;;;;;;9.08;48.42;101876.72;5096261;28;20386;-72
2022/03/21 08:58:36;;;;;;;0.20;0.20;;;;;;;9.34;46.95;101880.56;5073649;28;20125;-72
2022/03/21 09:01:01;;;;;;;0.20;0.20;;;;;;;10.27;45.81;101857.66;5095472;28;20028;-71
2022/03/21 09:03:27;;;;;;;0.20;0.20;;;;;;;10.69;45.08;101850.63;5096039;28;20121;-72
2022/03/21 09:05:53;;;;;;;0.25;0.25;;;;;;;10.77;44.22;101857.38;5095633;28;20463;-72
2022/03/21 09:12:00;;;;;;;0.22;0.22;;;;;;;11.45;42.52;101849.38;5095679;28;20031;-72
2022/03/21 09:14:28;;;;;;;0.20;0.20;;;;;;;11.31;44.30;101852.38;5095420;28;20031;-72
2022/03/21 09:17:13;;;;;;;0.20;0.20;;;;;;;10.71;43.08;101841.97;5095333;28;20028;-72
2022/03/21 09:19:39;;;;;;;0.20;0.20;;;;;;;11.46;40.60;101832.38;5095105;28;20056;-71
2022/03/21 09:22:08;;;;;;;0.20;0.20;;;;;;;11.55;38.50;101824.78;5078447;28;20028;-72
2022/03/21 09:24:38;;;;;;;0.20;0.20;;;;;;;12.93;37.78;101833.81;5099402;28;20086;-72
2022/03/21 09:27:07;;;;;;;0.20;0.20;;;;;;;11.98;38.72;101831.47;5099730;28;20082;-72
2022/03/21 09:29:41;;;;;;;0.20;0.20;;;;;;;11.54;41.75;101836.28;5096139;28;20032;-72
2022/03/21 09:32:07;;;;;;;0.20;0.20;;;;;;;10.72;42.31;101838.84;5096898;28;20035;-72
2022/03/21 09:34:39;;;;;;;0.20;0.20;;;;;;;11.08;41.74;101817.41;5096019;28;20028;-71
2022/03/21 09:37:08;;;;;;;0.20;0.20;;;;;;;10.55;43.05;101847.16;5094355;28;20074;-72
2022/03/21 09:39:33;;;;;;;0.20;0.20;;;;;;;10.78;43.30;101825.59;5095539;28;20032;-72
2022/03/21 09:42:20;;;;;;;0.20;0.20;;;;;;;10.61;43.83;101831.13;5094972;28;20470;-72
2022/03/21 09:44:53;;;;;;;0.20;0.20;;;;;;;10.40;42.92;101826.13;5094930;28;20052;-72
2022/03/21 09:50:35;;;;;;;0.20;0.20;;;;;;;10.62;41.95;101813.28;5096104;28;20120;-72
2022/03/21 09:56:28;;;;;;;0.20;0.20;;;;;;;12.24;39.20;101795.91;5094380;28;20044;-72
2022/03/21 09:58:59;;;;;;;0.20;0.20;;;;;;;11.57;39.47;101796.59;5094655;28;20474;-72
2022/03/21 10:01:52;;;;;;;0.20;0.20;;;;;;;12.18;38.26;101793.66;5094762;28;20120;-72
2022/03/21 10:04:17;;;;;;;0.20;0.20;;;;;;;12.22;38.21;101797.44;5094443;28;20074;-72
2022/03/21 10:06:49;;;;;;;0.20;0.20;;;;;;;12.62;37.51;101805.41;5095138;28;20036;-72
2022/03/21 10:10:03;;;;;;;0.20;0.20;;;;;;;11.89;38.49;101795.25;5056454;28;20041;-72
2022/03/21 10:12:29;;;;;;;0.20;0.20;;;;;;;11.99;39.75;101796.88;5038257;28;20033;-72
2022/03/21 10:15:08;;;;;;;0.20;0.20;;;;;;;12.42;38.45;101802.25;5037490;28;20036;-71
2022/03/21 10:17:34;;;;;;;0.20;0.20;;;;;;;12.64;37.39;101791.97;5036727;28;20045;-72
2022/03/21 10:20:11;;;;;;;0.20;0.20;;;;;;;12.78;36.94;101792.50;5063183;28;20086;-71
2022/03/21 10:22:43;;;;;;;0.20;0.20;;;;;;;13.18;34.41;101784.50;5073133;28;20028;-72
2022/03/21 10:25:27;;;;;;;0.30;0.30;;;;;;;12.82;36.26;101785.09;5056575;28;20443;-71
2022/03/21 10:27:58;;;;;;;0.20;0.20;;;;;;;13.38;34.68;101794.06;5072621;28;20033;-71
2022/03/21 10:30:28;;;;;;;0.20;0.20;;;;;;;12.24;35.91;101784.75;5056352;28;20040;-71
2022/03/21 10:32:59;;;;;;;0.20;0.20;;;;;;;11.62;37.53;101784.47;5055771;28;20185;-72
2022/03/21 10:35:29;;;;;;;0.20;0.20;;;;;;;11.65;37.94;101806.09;5056425;28;20070;-71
2022/03/21 10:37:59;;;;;;;0.20;0.20;;;;;;;11.46;37.98;101786.94;5056024;28;20542;-71
2022/03/21 10:40:33;;;;;;;0.20;0.20;;;;;;;11.90;37.83;101773.75;5088213;28;20050;-71
2022/03/21 10:43:05;;;;;;;0.20;0.20;;;;;;;11.74;37.97;101784.59;5097834;28;20032;-71
2022/03/21 10:45:51;;;;;;;0.20;0.20;;;;;;;12.18;38.21;101774.13;5097514;28;20507;-72
2022/03/21 10:48:30;;;;;;;0.20;0.20;;;;;;;12.01;39.18;101763.88;5097685;28;20031;-73
2022/03/21 10:50:59;;;;;;;0.20;0.20;;;;;;;11.61;38.92;101774.44;5082141;28;20089;-72
2022/03/21 10:53:45;;;;;;;0.20;0.20;;;;;;;11.21;39.49;101763.53;5117043;28;20046;-72
2022/03/21 10:56:12;;;;;;;0.20;0.20;;;;;;;11.72;40.86;101756.25;5098285;28;20094;-71
2022/03/21 10:58:40;;;;;;;0.20;0.20;;;;;;;11.72;40.95;101748.69;5097298;28;20031;-71
2022/03/21 11:01:20;;;;;;;0.20;0.20;;;;;;;12.56;39.96;101746.16;5096481;28;20046;-71
2022/03/21 11:03:49;;;;;;;0.20;0.20;;;;;;;13.38;38.76;101743.72;5096837;28;20027;-71
2022/03/21 11:06:19;;;;;;;0.20;0.20;;;;;;;13.34;37.53;101754.78;5114867;28;20030;-71
2022/03/21 11:08:47;;;;;;;0.20;0.20;;;;;;;13.16;37.44;101749.66;5096093;28;20027;-71
2022/03/21 11:11:13;;;;;;;0.20;0.20;;;;;;;12.90;38.29;101761.88;5097852;28;20173;-72
2022/03/21 11:13:53;;;;;;;0.20;0.20;;;;;;;12.16;40.13;101751.34;5096859;28;20114;-71
2022/03/21 11:16:19;;;;;;;0.20;0.20;;;;;;;11.86;40.45;101747.69;5096494;28;20027;-71
2022/03/21 11:18:54;;;;;;;0.20;0.20;;;;;;;12.39;40.45;101751.88;5096901;28;20028;-72
2022/03/21 11:21:26;;;;;;;0.20;0.20;;;;;;;12.23;39.90;101748.81;5056933;28;20475;-72
2022/03/21 11:23:55;;;;;;;0.20;0.20;;;;;;;12.32;39.19;101746.81;5072556;28;20490;-71
2022/03/21 11:26:52;;;;;;;0.20;0.20;;;;;;;12.11;39.37;101748.72;5072758;28;20024;-72
2022/03/21 11:29:38;;;;;;;0.20;0.20;;;;;;;11.67;40.24;101750.84;5038868;28;20096;-71
2022/03/21 11:32:06;;;;;;;0.20;0.20;;;;;;;12.14;39.86;101756.41;5072702;28;20033;-71
2022/03/21 11:34:43;;;;;;;0.20;0.20;;;;;;;12.69;39.10;101741.50;5072407;28;20028;-71
2022/03/21 11:37:30;;;;;;;0.20;0.20;;;;;;;12.48;39.66;101750.66;5072716;28;20035;-71
2022/03/21 11:40:39;;;;;;;0.20;0.20;;;;;;;12.74;39.13;101735.72;5073373;28;20024;-71
2022/03/21 11:43:17;;;;;;;0.20;0.20;;;;;;;12.33;39.21;101749.25;5059226;28;20041;-71
2022/03/21 11:45:44;;;;;;;0.28;0.28;;;;;;;12.41;39.26;101739.22;5072420;28;20031;-71
2022/03/21 11:48:21;;;;;;;0.20;0.20;;;;;;;12.18;39.64;101740.66;5072343;28;20020;-71
2022/03/21 11:51:18;;;;;;;0.20;0.20;;;;;;;11.96;40.13;101731.38;5072420;28;20032;-71
2022/03/21 11:53:49;;;;;;;0.20;0.20;;;;;;;12.32;38.73;101735.66;5072277;28;20028;-71
2022/03/21 11:56:41;;;;;;;0.20;0.20;;;;;;;12.84;38.40;101712.97;5072687;28;20029;-71
2022/03/21 11:59:08;;;;;;;0.20;0.20;;;;;;;12.78;38.37;101711.50;5009715;28;20044;-71
2022/03/21 12:01:39;;;;;;;0.20;0.20;;;;;;;13.38;36.90;101693.41;5072390;28;20497;-71
2022/03/21 12:04:23;;;;;;;0.20;0.20;;;;;;;13.17;36.24;101724.16;5072173;28;20029;-71
2022/03/21 12:06:51;;;;;;;0.20;0.20;;;;;;;13.39;36.72;101709.00;5072903;28;20024;-71
2022/03/21 12:09:17;;;;;;;0.20;0.20;;;;;;;13.35;37.42;101694.09;5072590;28;20048;-71
2022/03/21 12:11:46;;;;;;;0.28;0.28;;;;;;;13.00;37.87;101674.03;5072287;28;20024;-71
2022/03/21 12:14:22;;;;;;;0.20;0.20;;;;;;;13.41;37.17;101692.69;5072262;28;20035;-71